createdAt,value
2023-04-27T00:01:01.388Z,74.10
2023-04-27T00:03:28.498Z,74.14
2023-04-27T00:05:55.588Z,74.76
2023-04-27T00:08:22.204Z,74.17
2023-04-27T00:10:48.716Z,74.77
2023-04-27T00:13:15.333Z,75.74
2023-04-27T00:15:41.857Z,74.63
2023-04-27T00:18:08.379Z,74.37
2023-04-27T00:20:34.956Z,74.52
2023-04-27T00:23:01.547Z,74.23
2023-04-27T00:25:28.014Z,74.55
2023-04-27T00:27:54.516Z,74.84
2023-04-27T00:30:21.115Z,75.41
2023-04-27T00:32:47.823Z,74.95
2023-04-27T00:35:16.421Z,75.29
2023-04-27T00:37:42.977Z,75.41
2023-04-27T00:40:09.586Z,75.68
2023-04-27T00:42:36.584Z,76.14
2023-04-27T00:45:05.147Z,76.65
2023-04-27T00:47:32.791Z,76.21
2023-04-27T00:49:59.531Z,76.03
2023-04-27T00:52:26.246Z,76.04
2023-04-27T00:54:53.827Z,76.14
2023-04-27T00:57:21.356Z,75.31
2023-04-27T00:59:47.943Z,76.35
2023-04-27T01:02:14.552Z,76.42
2023-04-27T01:04:41.443Z,76.20
2023-04-27T01:07:08.144Z,75.93
2023-04-27T01:09:34.755Z,76.77
2023-04-27T01:12:01.617Z,76.89
2023-04-27T01:14:28.204Z,77.27
2023-04-27T01:16:54.788Z,77.36
2023-04-27T01:19:22.714Z,77.24
2023-04-27T01:21:50.427Z,77.10
2023-04-27T01:24:16.977Z,77.22
2023-04-27T01:26:43.515Z,77.16
2023-04-27T01:29:10.113Z,77.25
2023-04-27T01:31:36.586Z,76.87
2023-04-27T01:34:03.574Z,77.19
2023-04-27T01:36:30.195Z,77.38
2023-04-27T01:38:56.699Z,78.11
2023-04-27T01:41:23.925Z,78.24
2023-04-27T01:43:50.414Z,78.02
2023-04-27T01:46:16.870Z,78.54
2023-04-27T01:48:43.622Z,78.83
2023-04-27T01:51:10.996Z,79.80
2023-04-27T01:53:37.655Z,79.17
2023-04-27T01:56:04.461Z,79.69
2023-04-27T01:58:33.023Z,79.50
2023-04-27T02:00:59.549Z,79.05
2023-04-27T02:03:26.247Z,78.64
2023-04-27T02:05:53.000Z,78.17
2023-04-27T02:08:19.627Z,78.57
2023-04-27T02:10:46.333Z,78.62
2023-04-27T02:13:12.883Z,78.47
2023-04-27T02:15:39.318Z,79.31
2023-04-27T02:18:06.202Z,79.35
2023-04-27T02:20:33.225Z,80.41
2023-04-27T02:23:02.209Z,80.40
2023-04-27T02:25:28.930Z,80.56
2023-04-27T02:27:55.865Z,80.68
2023-04-27T02:30:22.961Z,81.67
2023-04-27T02:32:50.178Z,81.83
2023-04-27T02:35:16.767Z,81.80
2023-04-27T02:37:43.355Z,80.82
2023-04-27T02:40:10.326Z,80.73
2023-04-27T02:42:38.868Z,81.92
2023-04-27T02:45:08.786Z,81.65
2023-04-27T02:47:36.514Z,81.87
2023-04-27T02:50:04.090Z,82.02
2023-04-27T02:52:33.934Z,82.77
2023-04-27T02:55:00.659Z,83.00
2023-04-27T02:57:28.261Z,82.70
2023-04-27T02:59:54.900Z,82.82
2023-04-27T03:02:21.545Z,82.89
2023-04-27T03:04:53.522Z,82.34
2023-04-27T03:07:20.435Z,83.05
2023-04-27T03:09:47.117Z,83.36
2023-04-27T03:12:13.644Z,83.26
2023-04-27T03:14:40.174Z,83.43
2023-04-27T03:17:06.709Z,83.77
2023-04-27T03:19:33.227Z,83.70
2023-04-27T03:21:59.924Z,83.95
2023-04-27T03:24:27.697Z,82.74
2023-04-27T03:26:54.292Z,82.25
2023-04-27T03:29:21.173Z,82.65
2023-04-27T03:31:47.785Z,83.12
2023-04-27T03:34:14.420Z,83.58
2023-04-27T03:36:40.911Z,82.30
2023-04-27T03:39:09.908Z,82.93
2023-04-27T03:41:36.538Z,83.04
2023-04-27T03:44:03.280Z,83.49
2023-04-27T03:46:29.963Z,82.92
2023-04-27T03:48:56.520Z,83.21
2023-04-27T03:51:23.168Z,82.65
2023-04-27T03:53:49.739Z,83.69
2023-04-27T03:56:16.426Z,83.29
2023-04-27T03:58:43.100Z,83.39
2023-04-27T04:01:17.234Z,83.58
2023-04-27T04:03:43.860Z,83.34
2023-04-27T04:06:12.022Z,83.37
2023-04-27T04:08:39.174Z,83.13
2023-04-27T04:11:06.352Z,84.19
2023-04-27T04:13:36.022Z,84.08
2023-04-27T04:16:07.731Z,83.70
2023-04-27T04:18:35.491Z,84.16
2023-04-27T04:21:03.243Z,84.36
2023-04-27T04:23:29.791Z,83.77
2023-04-27T04:25:57.722Z,83.50
2023-04-27T04:28:27.516Z,83.06
2023-04-27T04:30:54.583Z,82.74
2023-04-27T04:33:21.489Z,82.81
2023-04-27T04:35:48.590Z,82.25
2023-04-27T04:38:15.156Z,79.48
2023-04-27T04:40:44.431Z,78.38
2023-04-27T04:43:13.350Z,79.14
2023-04-27T04:45:40.986Z,81.12
2023-04-27T04:48:08.625Z,80.82
2023-04-27T04:50:35.130Z,80.31
2023-04-27T04:53:01.624Z,80.16
2023-04-27T04:55:28.470Z,79.76
2023-04-27T04:57:55.185Z,79.13
2023-04-27T05:00:22.496Z,80.04
2023-04-27T05:02:49.365Z,80.15
2023-04-27T05:05:16.121Z,79.38
2023-04-27T05:07:43.082Z,79.43
2023-04-27T05:10:09.960Z,78.58
2023-04-27T05:12:36.535Z,76.72
2023-04-27T05:15:03.653Z,76.69
2023-04-27T05:17:30.302Z,76.91
2023-04-27T05:19:57.647Z,77.32
2023-04-27T05:22:24.225Z,76.91
2023-04-27T05:24:50.886Z,77.33
2023-04-27T05:27:17.470Z,78.79
2023-04-27T05:29:44.378Z,78.92
2023-04-27T05:32:11.027Z,78.13
2023-04-27T05:34:37.552Z,77.25
2023-04-27T05:37:03.966Z,77.96
2023-04-27T05:39:30.614Z,76.73
2023-04-27T05:41:57.525Z,77.89
2023-04-27T05:44:28.429Z,78.70
2023-04-27T05:46:56.315Z,77.84
2023-04-27T05:49:23.430Z,77.36
2023-04-27T05:51:50.116Z,76.20
2023-04-27T05:54:16.882Z,76.51
2023-04-27T05:56:43.377Z,75.93
2023-04-27T05:59:10.009Z,76.61
2023-04-27T06:01:36.947Z,77.16
2023-04-27T06:04:03.960Z,75.50
2023-04-27T06:06:35.419Z,75.85
2023-04-27T06:09:02.159Z,76.02
2023-04-27T06:11:28.849Z,74.54
2023-04-27T06:13:55.499Z,73.65
2023-04-27T06:16:22.180Z,73.02
2023-04-27T06:18:50.838Z,72.45
2023-04-27T06:21:17.925Z,72.45
2023-04-27T06:23:44.539Z,72.09
2023-04-27T06:26:11.498Z,71.51
2023-04-27T06:28:38.266Z,71.07
2023-04-27T06:31:05.368Z,72.13
2023-04-27T06:33:31.952Z,70.26
2023-04-27T06:35:58.532Z,70.02
2023-04-27T06:38:25.183Z,69.20
2023-04-27T06:40:53.079Z,68.99
2023-04-27T06:43:19.692Z,68.64
2023-04-27T06:45:46.491Z,68.68
2023-04-27T06:48:15.203Z,68.42
2023-04-27T06:50:42.018Z,68.46
2023-04-27T06:53:08.824Z,68.44
2023-04-27T06:55:35.681Z,67.99
2023-04-27T06:58:03.469Z,68.01
2023-04-27T07:00:30.665Z,66.11
2023-04-27T07:02:57.392Z,65.28
2023-04-27T07:05:24.005Z,65.71
2023-04-27T07:07:50.435Z,65.44
2023-04-27T07:10:17.089Z,64.82
2023-04-27T07:12:43.727Z,64.21
2023-04-27T07:15:10.659Z,63.52
2023-04-27T07:17:37.209Z,61.89
2023-04-27T07:20:06.128Z,61.93
2023-04-27T07:22:33.649Z,61.82
2023-04-27T07:25:00.422Z,59.22
2023-04-27T07:27:27.466Z,59.58
2023-04-27T07:29:54.708Z,58.63
2023-04-27T07:32:22.022Z,59.30
2023-04-27T07:34:53.703Z,60.00
2023-04-27T07:37:21.271Z,59.02
2023-04-27T07:39:50.291Z,57.59
2023-04-27T07:42:16.862Z,58.60
2023-04-27T07:44:43.351Z,55.98
2023-04-27T07:47:10.647Z,56.99
2023-04-27T07:49:38.325Z,56.12
2023-04-27T07:52:05.301Z,55.97
2023-04-27T07:54:31.853Z,54.46
2023-04-27T07:56:58.646Z,54.43
2023-04-27T07:59:28.579Z,54.88
2023-04-27T08:02:04.085Z,54.80
2023-04-27T08:04:37.986Z,55.06
2023-04-27T08:07:05.138Z,55.71
2023-04-27T08:09:32.421Z,56.22
2023-04-27T08:11:58.891Z,54.30
2023-04-27T08:14:25.480Z,54.72
2023-04-27T08:16:54.974Z,54.70
2023-04-27T08:19:21.595Z,54.31
2023-04-27T08:21:48.110Z,53.73
2023-04-27T08:24:14.616Z,54.86
2023-04-27T08:26:41.275Z,55.13
2023-04-27T08:29:19.347Z,55.07
2023-04-27T08:31:55.671Z,53.59
2023-04-27T08:34:23.126Z,53.49
2023-04-27T08:36:49.618Z,52.77
2023-04-27T08:39:16.174Z,51.46
2023-04-27T08:41:43.880Z,51.16
2023-04-27T08:44:10.488Z,51.07
2023-04-27T08:46:38.262Z,51.81
2023-04-27T08:49:06.169Z,50.64
2023-04-27T08:51:33.428Z,50.91
2023-04-27T08:54:00.213Z,50.62
2023-04-27T08:56:28.637Z,50.61
2023-04-27T08:58:56.907Z,49.63
2023-04-27T09:01:25.300Z,49.22
2023-04-27T09:04:00.469Z,46.60
2023-04-27T09:06:32.002Z,44.63
2023-04-27T09:08:59.063Z,44.32
2023-04-27T09:11:33.747Z,43.77
2023-04-27T09:14:03.121Z,43.66
2023-04-27T09:16:30.827Z,41.97
2023-04-27T09:18:58.729Z,42.58
2023-04-27T09:21:27.788Z,41.13
2023-04-27T09:23:55.981Z,42.85
2023-04-27T09:26:27.061Z,41.16
2023-04-27T09:28:59.667Z,41.59
2023-04-27T09:31:33.636Z,42.86
2023-04-27T09:34:00.406Z,41.43
2023-04-27T09:36:27.093Z,40.86
2023-04-27T09:38:53.789Z,40.85
2023-04-27T09:41:20.652Z,40.87
2023-04-27T09:43:47.437Z,39.24
2023-04-27T09:46:14.811Z,40.00
2023-04-27T09:48:42.604Z,39.69
2023-04-27T09:51:09.320Z,38.87
2023-04-27T09:53:46.660Z,37.69
2023-04-27T09:56:41.713Z,38.93
2023-04-27T09:59:33.034Z,38.93
2023-04-27T10:02:09.881Z,38.42
2023-04-27T10:04:55.153Z,39.13
2023-04-27T10:07:22.180Z,37.11
2023-04-27T10:09:51.922Z,37.70
2023-04-27T10:12:38.038Z,38.56
2023-04-27T10:15:16.250Z,38.44
2023-04-27T10:17:50.465Z,38.07
2023-04-27T10:20:17.984Z,37.63
2023-04-27T10:22:47.060Z,37.89
2023-04-27T10:25:14.963Z,38.60
2023-04-27T10:27:41.557Z,39.12
2023-04-27T10:30:12.752Z,38.34
2023-04-27T10:32:53.388Z,38.17
2023-04-27T10:35:24.570Z,38.61
2023-04-27T10:37:53.056Z,38.51
2023-04-27T10:40:19.844Z,37.62
2023-04-27T10:42:49.502Z,37.98
2023-04-27T10:45:30.270Z,38.55
2023-04-27T10:48:00.432Z,38.52
2023-04-27T10:50:28.034Z,39.06
2023-04-27T10:52:54.571Z,38.96
2023-04-27T10:55:22.786Z,38.31
2023-04-27T10:57:54.179Z,38.50
2023-04-27T11:00:24.055Z,39.18
2023-04-27T11:02:51.273Z,39.10
2023-04-27T11:05:20.088Z,38.16
2023-04-27T11:07:47.963Z,37.92
2023-04-27T11:10:18.730Z,37.70
2023-04-27T11:12:45.971Z,37.60
2023-04-27T11:15:14.165Z,36.89
2023-04-27T11:17:41.181Z,36.43
2023-04-27T11:20:08.828Z,37.20
2023-04-27T11:22:45.010Z,37.99
2023-04-27T11:25:11.864Z,36.56
2023-04-27T11:27:39.779Z,37.46
2023-04-27T11:30:08.015Z,37.15
2023-04-27T11:32:34.625Z,37.45
2023-04-27T11:35:01.628Z,36.58
2023-04-27T11:37:28.226Z,36.44
2023-04-27T11:39:55.369Z,36.44
2023-04-27T11:42:28.433Z,36.92
2023-04-27T11:45:05.844Z,36.96
2023-04-27T11:47:33.688Z,35.32
2023-04-27T11:50:02.343Z,36.26
2023-04-27T11:52:32.802Z,36.64
2023-04-27T11:55:00.435Z,37.71
2023-04-27T11:57:34.398Z,37.21
2023-04-27T12:00:02.419Z,37.44
2023-04-27T12:02:40.830Z,38.36
2023-04-27T12:05:09.564Z,39.19
2023-04-27T12:07:36.390Z,38.30
2023-04-27T12:10:02.963Z,38.71
2023-04-27T12:12:29.483Z,38.37
2023-04-27T12:14:56.035Z,38.77
2023-04-27T12:17:22.523Z,39.51
2023-04-27T12:19:49.153Z,39.47
2023-04-27T12:22:16.273Z,38.66
2023-04-27T12:24:42.760Z,37.97
2023-04-27T12:27:09.398Z,37.95
2023-04-27T12:29:36.882Z,39.32
2023-04-27T12:32:03.485Z,38.67
2023-04-27T12:34:30.051Z,38.27
2023-04-27T12:36:56.576Z,38.68
2023-04-27T12:39:25.396Z,37.75
2023-04-27T12:41:53.134Z,37.60
2023-04-27T12:44:20.535Z,37.38
2023-04-27T12:46:48.542Z,36.99
2023-04-27T12:49:15.778Z,36.74
2023-04-27T12:51:42.507Z,36.91
2023-04-27T12:54:11.224Z,36.20
2023-04-27T12:56:37.960Z,37.53
2023-04-27T12:59:05.983Z,36.18
2023-04-27T13:01:33.271Z,36.65
2023-04-27T13:04:01.800Z,36.45
2023-04-27T13:06:29.509Z,37.36
2023-04-27T13:08:56.426Z,37.02
2023-04-27T13:11:23.854Z,36.46
2023-04-27T13:13:50.690Z,36.61
2023-04-27T13:16:19.252Z,36.11
2023-04-27T13:18:49.366Z,36.06
2023-04-27T13:21:17.890Z,36.33
2023-04-27T13:23:44.429Z,36.19
2023-04-27T13:26:11.518Z,34.92
2023-04-27T13:28:38.143Z,35.76
2023-04-27T13:31:05.473Z,36.26
2023-04-27T13:33:33.543Z,35.38
2023-04-27T13:36:02.352Z,35.06
2023-04-27T13:38:29.043Z,35.03
2023-04-27T13:40:55.812Z,35.23
2023-04-27T13:43:22.346Z,35.00
2023-04-27T13:45:50.806Z,35.55
2023-04-27T13:48:17.425Z,35.43
2023-04-27T13:50:44.012Z,36.38
2023-04-27T13:53:10.665Z,35.05
2023-04-27T13:55:37.425Z,35.85
2023-04-27T13:58:04.803Z,36.40
2023-04-27T14:00:34.492Z,36.17
2023-04-27T14:03:01.623Z,37.95
2023-04-27T14:05:28.733Z,38.00
2023-04-27T14:07:55.340Z,37.64
2023-04-27T14:10:23.023Z,37.84
2023-04-27T14:12:49.908Z,37.90
2023-04-27T14:15:16.938Z,37.82
2023-04-27T14:17:43.527Z,37.18
2023-04-27T14:20:10.242Z,37.65
2023-04-27T14:22:37.091Z,37.06
2023-04-27T14:25:03.898Z,37.82
2023-04-27T14:27:30.540Z,37.22
2023-04-27T14:29:57.099Z,36.54
2023-04-27T14:32:23.621Z,37.71
2023-04-27T14:34:50.200Z,36.91
2023-04-27T14:37:16.740Z,37.23
2023-04-27T14:39:45.266Z,38.19
2023-04-27T14:42:12.136Z,38.49
2023-04-27T14:44:38.673Z,37.82
2023-04-27T14:47:06.306Z,38.79
2023-04-27T14:49:32.915Z,38.51
2023-04-27T14:52:03.184Z,39.06
2023-04-27T14:54:29.741Z,38.56
2023-04-27T14:56:58.224Z,38.66
2023-04-27T14:59:25.434Z,39.21
2023-04-27T15:01:52.175Z,39.03
2023-04-27T15:04:19.028Z,38.39
2023-04-27T15:06:45.928Z,38.85
2023-04-27T15:09:13.499Z,39.18
2023-04-27T15:11:40.440Z,39.18
2023-04-27T15:14:08.569Z,38.11
2023-04-27T15:16:35.520Z,39.27
2023-04-27T15:19:02.462Z,39.02
2023-04-27T15:21:30.355Z,39.24
2023-04-27T15:23:57.149Z,37.90
2023-04-27T15:26:23.803Z,38.58
2023-04-27T15:28:50.717Z,37.93
2023-04-27T15:31:17.366Z,36.71
2023-04-27T15:33:43.915Z,38.42
2023-04-27T15:36:10.532Z,37.78
2023-04-27T15:38:37.017Z,37.90
2023-04-27T15:41:03.543Z,38.30
2023-04-27T15:43:30.196Z,38.30
2023-04-27T15:45:57.045Z,38.61
2023-04-27T15:48:23.566Z,38.48
2023-04-27T15:50:49.976Z,38.26
2023-04-27T15:53:16.550Z,38.90
2023-04-27T15:55:43.308Z,39.95
2023-04-27T15:58:09.894Z,38.43
2023-04-27T16:00:36.854Z,37.64
2023-04-27T16:03:04.247Z,37.63
2023-04-27T16:05:31.210Z,38.77
2023-04-27T16:07:58.351Z,38.21
2023-04-27T16:10:24.908Z,38.17
2023-04-27T16:12:51.350Z,37.91
2023-04-27T16:15:18.187Z,39.30
2023-04-27T16:17:44.744Z,39.06
2023-04-27T16:20:11.477Z,40.68
2023-04-27T16:22:38.085Z,40.68
2023-04-27T16:25:10.235Z,40.93
2023-04-27T16:27:38.277Z,41.33
2023-04-27T16:30:06.658Z,41.19
2023-04-27T16:32:35.327Z,41.63
2023-04-27T16:35:02.384Z,41.92
2023-04-27T16:37:28.844Z,44.06
2023-04-27T16:39:59.099Z,44.95
2023-04-27T16:42:25.739Z,43.76
2023-04-27T16:44:52.410Z,46.63
2023-04-27T16:47:18.965Z,45.81
2023-04-27T16:49:45.444Z,46.60
2023-04-27T16:52:12.173Z,47.13
2023-04-27T16:54:38.707Z,45.95
2023-04-27T16:57:05.227Z,45.68
2023-04-27T16:59:32.410Z,45.22
2023-04-27T17:02:09.075Z,44.20
2023-04-27T17:04:43.476Z,44.97
2023-04-27T17:07:10.038Z,45.32
2023-04-27T17:09:37.112Z,47.35
2023-04-27T17:12:08.113Z,47.81
2023-04-27T17:14:34.698Z,46.61
2023-04-27T17:17:01.569Z,46.35
2023-04-27T17:19:28.546Z,46.88
2023-04-27T17:21:55.446Z,47.62
2023-04-27T17:24:23.974Z,48.36
2023-04-27T17:26:51.296Z,49.18
2023-04-27T17:29:17.821Z,49.46
2023-04-27T17:31:44.301Z,48.76
2023-04-27T17:34:11.713Z,49.54
2023-04-27T17:36:38.626Z,49.26
2023-04-27T17:39:05.145Z,49.43
2023-04-27T17:41:33.063Z,49.84
2023-04-27T17:44:00.372Z,50.43
2023-04-27T17:46:26.864Z,50.67
2023-04-27T17:48:53.381Z,50.17
2023-04-27T17:51:20.009Z,50.80
2023-04-27T17:53:46.666Z,50.17
2023-04-27T17:56:13.258Z,50.97
2023-04-27T17:58:39.692Z,51.10
2023-04-27T18:01:10.035Z,51.02
2023-04-27T18:03:37.078Z,50.97
2023-04-27T18:06:03.747Z,51.61
2023-04-27T18:08:30.395Z,52.29
2023-04-27T18:10:56.975Z,52.56
2023-04-27T18:13:23.719Z,52.67
2023-04-27T18:15:50.392Z,52.71
2023-04-27T18:18:22.575Z,53.18
2023-04-27T18:20:51.220Z,54.25
2023-04-27T18:23:17.690Z,54.37
2023-04-27T18:25:44.324Z,54.84
2023-04-27T18:28:11.156Z,55.75
2023-04-27T18:30:37.903Z,55.61
2023-04-27T18:33:04.659Z,56.61
2023-04-27T18:35:31.261Z,56.58
2023-04-27T18:37:57.686Z,57.71
2023-04-27T18:40:25.818Z,57.07
2023-04-27T18:42:53.411Z,57.44
2023-04-27T18:45:20.264Z,58.07
2023-04-27T18:47:46.934Z,57.96
2023-04-27T18:50:13.720Z,58.22
2023-04-27T18:52:40.500Z,58.76
2023-04-27T18:55:09.008Z,58.83
2023-04-27T18:57:35.581Z,59.05
2023-04-27T19:00:04.544Z,59.94
2023-04-27T19:02:31.859Z,59.52
2023-04-27T19:05:11.378Z,60.14
2023-04-27T19:07:39.955Z,60.67
2023-04-27T19:10:09.318Z,60.62
2023-04-27T19:12:35.970Z,60.69
2023-04-27T19:15:03.237Z,61.03
2023-04-27T19:17:30.170Z,61.25
2023-04-27T19:19:56.936Z,61.69
2023-04-27T19:22:23.469Z,62.43
2023-04-27T19:24:49.924Z,62.14
2023-04-27T19:27:16.481Z,62.25
2023-04-27T19:29:53.569Z,62.56
2023-04-27T19:32:20.830Z,62.96
2023-04-27T19:34:48.616Z,63.59
2023-04-27T19:37:15.966Z,63.97
2023-04-27T19:39:42.547Z,63.22
2023-04-27T19:42:09.357Z,62.81
2023-04-27T19:44:36.015Z,63.49
2023-04-27T19:47:02.506Z,63.95
2023-04-27T19:49:32.714Z,64.84
2023-04-27T19:52:02.878Z,65.17
2023-04-27T19:54:29.567Z,65.15
2023-04-27T19:56:56.230Z,65.47
2023-04-27T19:59:22.892Z,65.18
2023-04-27T20:01:49.601Z,65.93
2023-04-27T20:04:18.007Z,66.14
2023-04-27T20:06:45.162Z,66.65
2023-04-27T20:09:11.928Z,67.00
2023-04-27T20:11:38.658Z,67.43
2023-04-27T20:14:05.630Z,67.08
2023-04-27T20:16:32.307Z,67.61
2023-04-27T20:18:58.884Z,67.50
2023-04-27T20:21:28.037Z,67.43
2023-04-27T20:23:54.761Z,68.16
2023-04-27T20:26:22.402Z,68.15
2023-04-27T20:28:49.076Z,68.73
2023-04-27T20:31:16.071Z,68.33
2023-04-27T20:33:42.662Z,68.66
2023-04-27T20:36:17.046Z,68.97
2023-04-27T20:38:45.433Z,69.23
2023-04-27T20:41:14.893Z,68.63
2023-04-27T20:43:41.469Z,68.15
2023-04-27T20:46:08.111Z,69.38
2023-04-27T20:48:34.702Z,68.90
2023-04-27T20:51:02.726Z,69.46
2023-04-27T20:53:29.740Z,69.36
2023-04-27T20:55:57.028Z,70.01
2023-04-27T20:58:23.672Z,70.70
2023-04-27T21:00:50.390Z,70.47
2023-04-27T21:03:17.118Z,70.30
2023-04-27T21:05:44.128Z,70.06
2023-04-27T21:08:10.850Z,70.80
2023-04-27T21:10:37.423Z,70.58
2023-04-27T21:13:04.114Z,70.45
2023-04-27T21:15:30.983Z,70.80
2023-04-27T21:17:57.552Z,70.89
2023-04-27T21:20:24.217Z,70.57
2023-04-27T21:22:50.650Z,71.31
2023-04-27T21:25:17.304Z,71.02
2023-04-27T21:27:44.019Z,70.56
2023-04-27T21:30:11.118Z,71.32
2023-04-27T21:32:37.724Z,71.36
2023-04-27T21:35:04.595Z,71.20
2023-04-27T21:37:31.183Z,71.17
2023-04-27T21:39:57.595Z,71.56
2023-04-27T21:42:24.202Z,71.36
2023-04-27T21:44:50.712Z,71.46
2023-04-27T21:47:17.184Z,71.71
2023-04-27T21:49:43.707Z,72.06
2023-04-27T21:52:11.126Z,72.23
2023-04-27T21:54:37.651Z,72.47
2023-04-27T21:57:04.204Z,72.34
2023-04-27T21:59:30.819Z,72.39
2023-04-27T22:17:51.275Z,75.71
2023-04-27T22:20:18.930Z,75.55
2023-04-27T22:22:45.906Z,75.88
2023-04-27T22:25:12.701Z,75.50
2023-04-27T22:27:45.142Z,75.35
2023-04-27T22:30:12.832Z,75.22
2023-04-27T22:32:39.399Z,74.87
2023-04-27T22:35:18.716Z,74.65
2023-04-27T22:37:51.736Z,74.94
2023-04-27T22:40:18.292Z,74.87
2023-04-27T22:42:44.798Z,74.71
2023-04-27T22:45:11.861Z,75.40
2023-04-27T22:47:38.800Z,75.51
2023-04-27T22:50:06.694Z,75.71
2023-04-27T22:52:33.799Z,75.27
2023-04-27T22:55:02.133Z,75.59
2023-04-27T22:57:28.954Z,75.46
2023-04-27T22:59:55.697Z,75.29
2023-04-27T23:02:23.192Z,75.50
2023-04-27T23:04:50.039Z,75.57
2023-04-27T23:07:18.336Z,75.37
2023-04-27T23:09:45.862Z,75.21
2023-04-27T23:12:12.453Z,75.07
2023-04-27T23:14:40.059Z,75.23
2023-04-27T23:17:07.546Z,75.14
2023-04-27T23:19:34.717Z,75.90
2023-04-27T23:22:02.029Z,75.60
2023-04-27T23:24:31.797Z,75.23
2023-04-27T23:26:58.557Z,75.25
2023-04-27T23:29:25.436Z,75.19
2023-04-27T23:31:52.091Z,75.18
2023-04-27T23:34:18.715Z,75.65
2023-04-27T23:36:45.302Z,75.42
2023-04-27T23:39:11.735Z,75.81
2023-04-27T23:41:38.330Z,75.10
2023-04-27T23:44:04.801Z,75.22
2023-04-27T23:46:31.473Z,75.85
2023-04-27T23:48:58.092Z,75.88
2023-04-27T23:51:24.632Z,75.89
2023-04-27T23:53:51.160Z,76.72
2023-04-27T23:56:18.668Z,75.94
2023-04-27T23:58:45.914Z,76.01
